Kulu, Russia
Current Conditions -  °F | °C
As of 12:00 AM on Friday 19 Dec 2014 (Local Time) from UHMM Reporting Station
Clear Clear  
Wind Chill: -27°   Ceiling: Unl
Heat Index: -27°   Visibility: 6mi
Dew Point: -33°   Wind: 0mph
Humidity: 75%   Direction: NA
Pressure: 29.85"   Gusts: NA
Location:  61.89°N, 147.45°E
Report Text: UHMM 181300Z 00000MPS 9999 SKC M33/M36 Q1011 RMK QFE744
Loading
Personal Weather Stations






























Interactive Weather Map New forecast layout! Learn more

10-Day Weather Forecast

Advertisements
Track Severe Weather on mobile